Flight Track Log - Related Links

Times and Time Zones

All times are in EDT time to prevent confusion due to time zone crossing. See the G-EZBG flight status page for this flight to view local times or setup timezone preferences in your user account.

Time Position Orientation Groundspeed Altitude Reporting Facility
EDT Latitude Longitude Course Direction KTS MPH feet Rate Location/Type
Sat 02:40:00 AM 41.6471 2.5620 46° Northeast  Level Estimated
Sat 02:41:00 AM 41.6969 2.6315 46° Northeast  Level Estimated
Sat 02:42:00 AM 41.7467 2.7011 46° Northeast  Level Estimated
Sat 02:43:00 AM 41.7965 2.7708 46° Northeast  Level Estimated
Sat 02:44:00 AM 41.8462 2.8407 46° Northeast  Level Estimated
Sat 02:44:16 AM 41.2830 2.0770 46° Northeast 153 176 100  Level FlightAware ADS-B
Sat 02:44:46 AM 41.2670 2.0590 220° Southwest 159 183 1,100 1,855 Climbing FlightAware ADS-B
Sat 02:45:11 AM 41.2490 2.0630 171° South 176 203 1,800 1,600 Climbing FlightAware ADS-B
Sat 02:45:16 AM 41.2440 2.0640 171° South 187 215 1,900 1,800 Climbing FlightAware ADS-B
Sat 02:45:41 AM 41.2220 2.0560 195° South 221 254 2,700 2,509 Climbing FlightAware ADS-B
Sat 02:46:11 AM 41.1910 2.0390 202° Southwest 247 284 4,200 3,382 Climbing FlightAware ADS-B
Sat 02:46:36 AM 41.1620 2.0260 199° South 259 298 5,800 3,927 Climbing FlightAware ADS-B
Sat 02:47:06 AM 41.1270 2.0100 199° South 261 300 7,800 3,867 Climbing FlightAware ADS-B
Sat 02:47:21 AM 41.1100 2.0050 192° South 267 307 8,700 3,150 Climbing FlightAware ADS-B
Sat 02:47:46 AM 41.0800 2.0170 163° South 298 343 9,900 2,229 Climbing FlightAware ADS-B
Sat 02:48:31 AM 41.0270 2.0750 140° Southeast 360 414 11,300 1,855 Climbing FlightAware ADS-B
Sat 02:48:41 AM 41.0200 2.0940 116° Southeast 372 428 11,600 2,640 Climbing FlightAware ADS-B
Sat 02:48:56 AM 41.0160 2.1320 98° East 379 436 12,400 2,727 Climbing FlightAware ADS-B
Sat 02:49:36 AM 41.0260 2.2200 81° East 391 450 14,100 2,824 Climbing FlightAware ADS-B
Sat 02:50:21 AM 41.0630 2.3190 64° Northeast 401 461 16,400 2,824 Climbing FlightAware ADS-B
Sat 02:51:01 AM 41.0950 2.4090 65° Northeast 412 474 18,100 2,753 Climbing FlightAware ADS-B
Sat 02:51:46 AM 41.1310 2.5090 64° Northeast 411 473 20,300 2,541 Climbing FlightAware ADS-B
Sat 02:52:26 AM 41.1650 2.6020 64° Northeast 428 493 21,700 2,188 Climbing FlightAware ADS-B
Sat 02:53:11 AM 41.2040 2.7120 65° Northeast 437 503 23,400 2,471 Climbing FlightAware ADS-B
Sat 02:53:51 AM 41.2390 2.8120 65° Northeast 435 501 25,200 2,700 Climbing FlightAware ADS-B
Sat 02:54:31 AM 41.2720 2.9050 65° Northeast 429 494 27,000 2,400 Climbing FlightAware ADS-B
Sat 02:55:16 AM 41.3120 3.0160 64° Northeast 429 494 28,600 2,047 Climbing FlightAware ADS-B
Sat 02:55:56 AM 41.3450 3.1110 65° Northeast 424 488 29,900 988 Climbing FlightAware ADS-B
Sat 02:56:41 AM 41.3810 3.2110 64° Northeast 421 484 30,000 71 Climbing FlightAware ADS-B
Sat 02:57:21 AM 41.4140 3.3050 65° Northeast 422 486 30,000  Level FlightAware ADS-B
Sat 02:58:01 AM 41.4470 3.4010 65° Northeast 423 487 30,000  Level FlightAware ADS-B
Sat 02:58:46 AM 41.4850 3.5100 65° Northeast 426 490 30,000  Level FlightAware ADS-B
Sat 02:59:26 AM 41.5190 3.6070 65° Northeast 428 493 30,000  Level FlightAware ADS-B
Sat 03:00:07 AM 41.5510 3.7010 66° East 429 494 30,000  Level FlightAware ADS-B
Sat 03:00:52 AM 41.5900 3.8140 65° Northeast 430 495 30,000  Level FlightAware ADS-B
Sat 03:01:32 AM 41.6140 3.9130 72° East 434 499 30,000  Level FlightAware ADS-B
Sat 03:02:12 AM 41.6310 4.0200 78° East 436 502 30,000  Level FlightAware ADS-B
Sat 03:02:57 AM 41.6500 4.1370 78° East 438 504 30,000  Level FlightAware ADS-B
Sat 03:03:37 AM 41.6670 4.2420 78° East 441 507 30,000  Level FlightAware ADS-B
Sat 03:04:22 AM 41.6930 4.3600 74° East 434 499 30,000  Level FlightAware ADS-B
Sat 03:05:02 AM 41.7460 4.4350 47° Northeast 429 494 30,000  Level FlightAware ADS-B
Sat 03:05:42 AM 41.8020 4.5150 47° Northeast 432 497 30,000 71 Level FlightAware ADS-B
Sat 03:06:27 AM 41.8620 4.6010 47° Northeast 432 497 30,100 60 Climbing FlightAware ADS-B
Sat 03:07:22 AM 41.9380 4.7100 47° Northeast 432 497 30,100 -60 Level FlightAware ADS-B
Sat 03:08:07 AM 41.9980 4.7960 47° Northeast 432 497 30,000 -75 Descending FlightAware ADS-B
Sat 03:08:42 AM 42.0440 4.8600 46° Northeast 431 496 30,000  Level FlightAware ADS-B
Sat 03:09:22 AM 42.0910 4.9260 46° Northeast 431 496 30,000  Level FlightAware ADS-B
Sat 03:10:12 AM 42.1500 5.0080 46° Northeast 431 496 30,000  Level FlightAware ADS-B
Sat 03:10:52 AM 42.1970 5.0740 46° Northeast 431 496 30,000  Level FlightAware ADS-B
Sat 03:11:32 AM 42.2440 5.1400 46° Northeast 431 496 30,000  Level FlightAware ADS-B
Sat 03:12:12 AM 42.2910 5.2060 46° Northeast 431 496 30,000  Level FlightAware ADS-B
Sat 03:12:52 AM 42.3390 5.2720 45° Northeast 431 496 30,000  Level FlightAware ADS-B
Sat 03:13:42 AM 42.4450 5.4430 50° Northeast 417 480 30,000  Level FlightAware ADS-B
Sat 03:14:22 AM 42.4950 5.5180 48° Northeast 417 480 30,000  Level FlightAware ADS-B
Sat 03:15:07 AM 42.5620 5.6150 47° Northeast 426 490 30,000  Level FlightAware ADS-B
Sat 03:15:47 AM 42.6140 5.6930 48° Northeast 429 494 30,000  Level FlightAware ADS-B
Sat 03:16:27 AM 42.6660 5.7690 47° Northeast 431 496 30,000 71 Level FlightAware ADS-B
Sat 03:17:12 AM 42.7280 5.8610 47° Northeast 431 496 30,100 71 Climbing FlightAware ADS-B
Sat 03:17:52 AM 42.7830 5.9440 48° Northeast 428 493 30,100 -71 Level FlightAware ADS-B
Sat 03:18:37 AM 42.8390 6.0400 51° Northeast 429 494 30,000 -71 Descending FlightAware ADS-B
Sat 03:19:17 AM 42.8880 6.1250 52° Northeast 427 491 30,000  Level FlightAware ADS-B
Sat 03:19:57 AM 42.9380 6.2100 51° Northeast 426 490 30,000  Level FlightAware ADS-B
Sat 03:20:42 AM 42.9930 6.3050 52° Northeast 424 488 30,000  Level FlightAware ADS-B
Sat 03:21:22 AM 43.0430 6.3890 51° Northeast 425 489 30,000  Level FlightAware ADS-B
Sat 03:22:07 AM 43.0970 6.4830 52° Northeast 425 489 30,000  Level FlightAware ADS-B
Sat 03:22:47 AM 43.1430 6.5620 51° Northeast 424 488 30,000  Level FlightAware ADS-B
Sat 03:23:27 AM 43.1950 6.6520 52° Northeast 424 488 30,000  Level FlightAware ADS-B
Sat 03:24:12 AM 43.2520 6.7510 52° Northeast 426 490 30,000  Level FlightAware ADS-B
Sat 03:24:52 AM 43.3000 6.8340 52° Northeast 426 490 30,000 -133 Level FlightAware ADS-B
Sat 03:25:42 AM 43.3610 6.9400 52° Northeast 432 497 29,800 -600 Descending FlightAware ADS-B
Sat 03:26:32 AM 43.4180 7.0420 52° Northeast 434 499 29,000 -933 Descending FlightAware ADS-B
Sat 03:27:12 AM 43.4710 7.1340 52° Northeast 438 504 28,400 -960 Descending FlightAware ADS-B
Sat 03:27:47 AM 43.5160 7.2130 52° Northeast 438 504 27,800 -960 Descending FlightAware ADS-B
Sat 03:28:27 AM 43.5630 7.2970 52° Northeast 437 503 27,200 -1,020 Descending FlightAware ADS-B
Sat 03:29:27 AM 43.6390 7.4320 52° Northeast 434 499 26,100 -626 Descending FlightAware ADS-B
Sat 03:30:22 AM 43.7070 7.5520 52° Northeast 432 497 26,000 -55 Descending FlightAware ADS-B
Sat 03:31:17 AM 43.7720 7.6730 53° Northeast 432 497 26,000  Level FlightAware ADS-B
Sat 03:32:07 AM 43.8320 7.7890 54° Northeast 432 497 26,000  Level FlightAware ADS-B
Sat 03:32:47 AM 43.8790 7.8780 54° Northeast 431 496 26,000  Level FlightAware ADS-B
Sat 03:33:32 AM 43.9310 7.9790 54° Northeast 432 497 26,000  Level FlightAware ADS-B
Sat 03:34:12 AM 43.9780 8.0690 54° Northeast 431 496 26,000  Level FlightAware ADS-B
Sat 03:34:47 AM 44.0200 8.1460 53° Northeast 430 495 26,000  Level FlightAware ADS-B
Sat 03:35:37 AM 44.0930 8.2430 44° Northeast 420 483 26,000  Level FlightAware ADS-B
Sat 03:36:17 AM 44.1590 8.3040 34° Northeast 413 475 26,000 -353 Level FlightAware ADS-B
Sat 03:37:02 AM 44.2310 8.3620 30° Northeast 406 467 25,500 -1,341 Descending FlightAware ADS-B
Sat 03:37:42 AM 44.2950 8.4150 31° Northeast 397 457 24,100 -1,971 Descending FlightAware ADS-B
Sat 03:38:12 AM 44.3400 8.4520 30° Northeast 390 449 23,200 -2,047 Descending FlightAware ADS-B
Sat 03:39:07 AM 44.4260 8.5230 31° Northeast 376 433 21,200 -1,774 Descending FlightAware ADS-B
Sat 03:40:07 AM 44.5110 8.5940 31° Northeast 373 429 19,800 -1,260 Descending FlightAware ADS-B
Sat 03:40:47 AM 44.5730 8.6460 31° Northeast 341 392 19,100 -1,020 Descending FlightAware ADS-B
Sat 03:41:47 AM 44.6530 8.7150 32° Northeast 328 377 18,100 -900 Descending FlightAware ADS-B
Sat 03:42:27 AM 44.7030 8.7590 32° Northeast 334 384 17,600 -825 Descending FlightAware ADS-B
Sat 03:43:07 AM 44.7570 8.8060 32° Northeast 331 381 17,000 -847 Descending FlightAware ADS-B
Sat 03:43:52 AM 44.8160 8.8570 32° Northeast 326 375 16,400 -776 Descending FlightAware ADS-B
Sat 03:44:32 AM 44.8670 8.9010 31° Northeast 321 369 15,900 -771 Descending FlightAware ADS-B
Sat 03:45:02 AM 44.9050 8.9270 26° Northeast 306 352 15,500 -982 Descending FlightAware ADS-B
Sat 03:45:27 AM 44.9380 8.9180 349° North 283 326 15,000 -1,457 Descending FlightAware ADS-B
Sat 03:46:12 AM 44.9860 8.8690 324° Northwest 275 316 13,800 -1,694 Descending FlightAware ADS-B
Sat 03:46:52 AM 45.0260 8.8260 323° Northwest 277 319 12,600 -1,835 Descending FlightAware ADS-B
Sat 03:47:37 AM 45.0740 8.7740 323° Northwest 280 322 11,200 -1,267 Descending FlightAware ADS-B
Sat 03:48:22 AM 45.1180 8.7280 324° Northwest 255 293 10,700 -1,140 Descending FlightAware ADS-B
Sat 03:49:17 AM 45.1760 8.7070 346° North 270 311 9,300 -1,425 Descending FlightAware ADS-B
Sat 03:49:42 AM 45.2010 8.7220 23° Northeast 270 311 8,800 -1,418 Descending FlightAware ADS-B
Sat 03:50:12 AM 45.2390 8.7420 20° North 269 310 8,000 -1,600 Descending FlightAware ADS-B
Sat 03:50:42 AM 45.2780 8.7610 19° North 265 305 7,200 -1,636 Descending FlightAware ADS-B
Sat 03:51:07 AM 45.3080 8.7740 17° North 268 308 6,500 -1,636 Descending FlightAware ADS-B
Sat 03:51:37 AM 45.3410 8.7850 13° North 268 308 5,700 -1,418 Descending FlightAware ADS-B
Sat 03:52:02 AM 45.3720 8.7940 12° North 262 302 5,200 -1,200 Descending FlightAware ADS-B
Sat 03:52:42 AM 45.4210 8.7910 358° North 242 278 4,400 -1,200 Descending FlightAware ADS-B
Sat 03:53:12 AM 45.4520 8.7820 348° North 220 253 3,800 -1,200 Descending FlightAware ADS-B
Sat 03:53:42 AM 45.4810 8.7750 350° North 202 232 3,200 -1,067 Descending FlightAware ADS-B
Sat 03:53:57 AM 45.4930 8.7710 347° North 195 224 3,000 -1,050 Descending FlightAware ADS-B
Sat 03:54:22 AM 45.5160 8.7650 350° North 185 213 2,500 -982 Descending FlightAware ADS-B
Sat 03:54:52 AM 45.5370 8.7590 349° North 146 168 2,100 -764 Descending FlightAware ADS-B
Sat 03:55:17 AM 45.5530 8.7550 350° North 131 151 1,800 -600 Descending FlightAware ADS-B
Sat 03:55:32 AM 45.5610 8.7530 350° North 128 147 1,700 -667 Descending FlightAware ADS-B
Sat 03:56:02 AM 45.5790 8.7480 349° North 128 147 1,300 -436 Descending FlightAware ADS-B
Sat 03:56:27 AM 45.5930 8.7440 349° North 128 147 1,300  Level FlightAware ADS-B
Sat 03:59:00 AM 45.6306 8.7281 344° North  Level Estimated
Sat 04:00:00 AM 45.6306 8.7281 170° South  Level Estimated
Sat 04:01:00 AM 45.6306 8.7281 170° South  Level Estimated
Sat 04:02:00 AM 45.6306 8.7281 170° South  Level Estimated
Sat 04:03:00 AM 45.6306 8.7281 170° South  Level Estimated
Sat 04:04:00 AM 45.6306 8.7281 170° South  Level Estimated

Login

Don't have an account? Register now (free) for customized features, flight alerts, and more!